Time;durP1;ratioP1;P1;durP2;ratioP2;P2;SDS_P1;SDS_P2;PMS_P1;PMS_P2;Temp;Humidity;BMP_temperature;BMP_pressure;BME280_temperature;BME280_humidity;BME280_pressure;Samples;Min_cycle;Max_cycle;Signal;HPM_P1;HPM_P2
2022/10/09 00:01:49;;;;;;;7.43;3.23;;;;;;;19.37;43.70;102618.44;5092041;28;20059;-75
2022/10/09 00:04:15;;;;;;;9.87;2.93;;;;;;;19.06;44.88;102620.75;5091974;28;20438;-75
2022/10/09 00:06:40;;;;;;;9.77;3.60;;;;;;;19.11;44.87;102622.44;5092517;28;20038;-75
2022/10/09 00:09:05;;;;;;;8.00;3.27;;;;;;;18.89;45.03;102626.31;5092539;28;20024;-75
2022/10/09 00:11:33;;;;;;;6.67;3.03;;;;;;;19.08;44.56;102614.53;5092937;28;20477;-75
2022/10/09 00:13:59;;;;;;;15.03;4.27;;;;;;;19.26;43.91;102615.09;5093717;28;20070;-75
2022/10/09 00:16:25;;;;;;;12.23;3.30;;;;;;;18.84;45.28;102623.72;5092505;28;20100;-75
2022/10/09 00:18:51;;;;;;;7.60;2.80;;;;;;;18.71;45.27;102623.06;5091543;28;20053;-75
2022/10/09 00:21:22;;;;;;;10.10;3.67;;;;;;;19.10;44.80;102620.66;5092170;28;20028;-74
2022/10/09 00:23:48;;;;;;;11.30;3.40;;;;;;;18.93;44.67;102618.31;5092478;28;20549;-75
2022/10/09 00:26:15;;;;;;;9.43;3.10;;;;;;;19.09;44.78;102624.22;5091370;28;20028;-75
2022/10/09 00:28:40;;;;;;;7.63;3.70;;;;;;;19.11;44.58;102617.13;5092133;28;20135;-75
2022/10/09 00:31:07;;;;;;;10.43;3.47;;;;;;;19.01;44.51;102615.53;5092022;28;20115;-75
2022/10/09 00:33:34;;;;;;;8.23;3.17;;;;;;;19.33;44.04;102616.75;5091353;28;20028;-75
2022/10/09 00:36:12;;;;;;;11.63;3.10;;;;;;;19.17;44.79;102621.44;5091973;28;20020;-75
2022/10/09 00:38:37;;;;;;;10.73;2.90;;;;;;;19.29;44.31;102623.00;5091400;28;20019;-75
2022/10/09 00:41:03;;;;;;;15.40;3.20;;;;;;;19.21;44.43;102616.97;5091619;28;20114;-75
2022/10/09 00:43:40;;;;;;;8.83;2.80;;;;;;;19.42;43.84;102613.91;5091902;28;20031;-75
2022/10/09 00:46:13;;;;;;;10.53;2.93;;;;;;;19.19;44.41;102613.44;5092499;28;20035;-75
2022/10/09 00:48:38;;;;;;;12.93;3.63;;;;;;;19.09;44.68;102603.00;5091942;28;20070;-75
2022/10/09 00:51:04;;;;;;;10.80;3.00;;;;;;;19.55;43.55;102611.00;5091336;28;20518;-75
2022/10/09 00:53:30;;;;;;;14.30;3.23;;;;;;;19.25;44.32;102611.56;5091170;28;20036;-74
2022/10/09 00:55:56;;;;;;;8.17;2.87;;;;;;;19.10;44.58;102609.22;5091730;28;20042;-75
2022/10/09 00:58:23;;;;;;;8.57;3.17;;;;;;;18.97;44.69;102608.53;5092797;28;20046;-75
2022/10/09 01:00:48;;;;;;;9.77;2.83;;;;;;;18.85;44.93;102603.41;5091027;28;20028;-75
2022/10/09 01:03:14;;;;;;;10.60;3.10;;;;;;;18.92;45.01;102605.09;5091322;28;20392;-75
2022/10/09 01:05:58;;;;;;;6.70;2.80;;;;;;;18.86;45.30;102605.16;5091627;28;20031;-75
2022/10/09 01:09:01;;;;;;;9.80;3.03;;;;;;;19.11;44.53;102595.91;5090811;28;20134;-75
2022/10/09 01:11:56;;;;;;;9.20;3.13;;;;;;;19.23;44.54;102604.53;5091396;28;20039;-75
2022/10/09 01:14:33;;;;;;;12.97;3.40;;;;;;;19.20;44.51;102605.47;5059235;28;20514;-75
2022/10/09 01:17:04;;;;;;;11.90;3.13;;;;;;;18.99;44.75;102606.75;5091302;28;20028;-75
2022/10/09 01:20:04;;;;;;;8.67;3.13;;;;;;;19.12;44.50;102602.97;5090951;28;20388;-75
2022/10/09 01:23:01;;;;;;;11.40;3.30;;;;;;;19.32;43.81;102604.38;5090693;28;20077;-75
2022/10/09 01:25:38;;;;;;;10.13;3.30;;;;;;;19.33;43.83;102604.34;5091265;28;20404;-75
2022/10/09 01:28:05;;;;;;;9.70;3.63;;;;;;;19.00;44.67;102603.19;5090218;28;20526;-74
2022/10/09 01:30:32;;;;;;;7.63;3.27;;;;;;;18.76;45.34;102593.84;5090863;28;20544;-75
2022/10/09 01:32:57;;;;;;;12.23;3.93;;;;;;;18.89;44.94;102594.53;5090921;28;20095;-75
2022/10/09 01:35:24;;;;;;;10.87;3.80;;;;;;;18.56;45.37;102591.50;5090431;28;20513;-75
2022/10/09 01:37:52;;;;;;;10.97;4.40;;;;;;;18.67;45.46;102583.38;5091024;28;20587;-75
2022/10/09 01:40:19;;;;;;;13.23;3.97;;;;;;;19.00;44.82;102587.28;5090901;28;20537;-75
2022/10/09 01:42:45;;;;;;;10.53;4.37;;;;;;;19.02;44.99;102574.88;5089942;28;20028;-75
2022/10/09 01:45:12;;;;;;;8.73;4.00;;;;;;;18.78;45.80;102571.72;5090761;28;20115;-75
2022/10/09 01:47:38;;;;;;;18.37;5.17;;;;;;;18.75;45.77;102574.44;5092042;28;20039;-75
2022/10/09 01:50:29;;;;;;;10.60;4.67;;;;;;;19.07;44.80;102578.31;5090072;28;20072;-75
2022/10/09 01:53:09;;;;;;;11.20;3.97;;;;;;;18.71;45.59;102575.41;5090451;28;20036;-75
2022/10/09 01:55:50;;;;;;;11.33;4.73;;;;;;;18.96;44.97;102575.00;5090750;28;20020;-75
2022/10/09 01:58:30;;;;;;;12.13;4.63;;;;;;;19.09;44.28;102570.34;5091528;28;20365;-75
2022/10/09 02:01:01;;;;;;;14.40;5.57;;;;;;;18.67;45.82;102563.09;5090343;28;20042;-75
2022/10/09 02:03:29;;;;;;;12.07;4.47;;;;;;;19.15;44.35;102560.50;5089934;28;20139;-75
2022/10/09 02:05:55;;;;;;;10.77;4.10;;;;;;;18.54;45.26;102546.53;5090595;28;20028;-75
2022/10/09 02:08:23;;;;;;;13.80;4.80;;;;;;;18.78;45.21;102550.53;5090653;28;20024;-75
2022/10/09 02:10:52;;;;;;;10.93;4.07;;;;;;;18.66;45.50;102553.41;5091011;28;20042;-75
2022/10/09 02:13:17;;;;;;;12.40;4.80;;;;;;;18.63;45.61;102546.38;5090541;28;20482;-75
2022/10/09 02:15:52;;;;;;;12.53;4.37;;;;;;;18.50;45.65;102549.25;5090417;28;20028;-75
2022/10/09 02:18:37;;;;;;;9.33;3.83;;;;;;;18.79;45.27;102552.28;5089646;28;20080;-75
2022/10/09 02:21:10;;;;;;;7.07;3.70;;;;;;;18.77;44.62;102543.50;5090407;28;20111;-74
2022/10/09 02:23:38;;;;;;;5.87;3.83;;;;;;;18.75;44.91;102550.59;5090553;28;20031;-75
2022/10/09 02:26:03;;;;;;;9.97;3.77;;;;;;;18.75;44.86;102550.59;5093674;28;20020;-75
2022/10/09 02:28:29;;;;;;;13.10;3.93;;;;;;;18.40;45.38;102543.22;5094669;28;20487;-75
2022/10/09 02:31:13;;;;;;;12.20;4.10;;;;;;;18.47;44.83;102545.75;5094405;28;20107;-75
2022/10/09 02:33:39;;;;;;;11.90;3.67;;;;;;;18.32;45.62;102538.06;5094122;28;20028;-75
2022/10/09 02:36:04;;;;;;;11.00;3.77;;;;;;;18.37;45.14;102536.22;5094358;28;20043;-75
2022/10/09 02:38:30;;;;;;;13.67;3.90;;;;;;;18.47;44.94;102537.78;5093694;28;20393;-74
2022/10/09 02:41:00;;;;;;;11.70;3.70;;;;;;;18.51;44.86;102535.13;5094204;28;20039;-75
2022/10/09 02:43:25;;;;;;;14.10;3.83;;;;;;;18.19;45.35;102540.03;5093957;28;20020;-75
2022/10/09 02:45:51;;;;;;;13.23;4.03;;;;;;;18.43;45.29;102538.75;5094655;28;20062;-75
2022/10/09 02:48:16;;;;;;;13.97;3.87;;;;;;;18.29;45.60;102530.16;5095494;28;20032;-75
2022/10/09 02:50:41;;;;;;;9.00;4.27;;;;;;;18.36;45.16;102531.81;5093850;28;20040;-75
2022/10/09 02:53:07;;;;;;;12.77;3.67;;;;;;;18.42;45.44;102537.03;5094495;28;20623;-75
2022/10/09 02:55:32;;;;;;;10.83;3.60;;;;;;;18.36;45.26;102526.50;5093832;28;20028;-75
2022/10/09 02:57:57;;;;;;;15.50;3.87;;;;;;;18.37;45.29;102525.63;5095494;28;20077;-75
2022/10/09 03:00:23;;;;;;;9.80;3.20;;;;;;;18.52;44.45;102523.59;5094391;28;20407;-74
2022/10/09 03:02:48;;;;;;;11.07;3.57;;;;;;;18.27;45.01;102518.72;5093995;28;20028;-75
2022/10/09 03:05:13;;;;;;;6.63;3.40;;;;;;;18.17;45.18;102525.06;5093537;28;20048;-74
2022/10/09 03:07:39;;;;;;;6.40;3.30;;;;;;;18.24;45.20;102527.56;5093402;28;20032;-75
2022/10/09 03:10:05;;;;;;;8.17;2.77;;;;;;;18.13;45.53;102519.81;5093666;28;20107;-75
2022/10/09 03:12:30;;;;;;;10.97;3.33;;;;;;;18.27;45.21;102524.91;5093501;28;20422;-75
2022/10/09 03:14:55;;;;;;;7.00;3.60;;;;;;;18.18;44.95;102521.53;5093079;28;20036;-75
2022/10/09 03:17:21;;;;;;;7.00;2.50;;;;;;;18.38;44.53;102514.16;5093535;28;20020;-75
2022/10/09 03:19:46;;;;;;;10.10;3.10;;;;;;;17.90;46.11;102511.28;5093506;28;20103;-75
2022/10/09 03:22:11;;;;;;;10.10;3.03;;;;;;;18.05;45.56;102521.72;5092850;28;20019;-75
2022/10/09 03:24:37;;;;;;;7.30;3.53;;;;;;;17.94;45.73;102524.50;5093373;28;20081;-75
2022/10/09 03:27:02;;;;;;;10.07;3.80;;;;;;;18.00;45.98;102528.81;5093431;28;20112;-75
2022/10/09 03:29:28;;;;;;;13.90;3.83;;;;;;;17.88;46.73;102523.69;5092691;28;20016;-75
2022/10/09 03:31:53;;;;;;;8.37;3.60;;;;;;;18.09;45.79;102523.41;5093495;28;20185;-75
2022/10/09 03:34:18;;;;;;;10.47;3.63;;;;;;;18.10;45.56;102519.84;5094237;28;20028;-75
2022/10/09 03:36:44;;;;;;;8.83;4.23;;;;;;;18.17;45.97;102519.75;5091922;28;20031;-75
2022/10/09 03:39:09;;;;;;;7.83;4.10;;;;;;;18.18;45.80;102516.22;5094474;28;20089;-75
2022/10/09 03:41:34;;;;;;;6.50;3.83;;;;;;;18.20;46.36;102511.78;5092599;28;20053;-75
2022/10/09 03:44:00;;;;;;;13.20;3.87;;;;;;;18.04;45.78;102514.66;5093077;28;20055;-75
2022/10/09 03:46:25;;;;;;;14.83;4.50;;;;;;;18.44;45.22;102514.03;5094174;28;20476;-75
2022/10/09 03:48:51;;;;;;;10.93;4.20;;;;;;;18.04;46.40;102513.75;5092384;28;20042;-75
2022/10/09 03:51:16;;;;;;;9.57;4.40;;;;;;;17.96;46.74;102519.19;5094045;28;20047;-74
2022/10/09 03:53:41;;;;;;;13.87;4.80;;;;;;;17.69;46.87;102507.19;5092899;28;20024;-75
2022/10/09 03:56:07;;;;;;;11.00;4.00;;;;;;;17.69;46.70;102513.31;5092163;28;20082;-75
2022/10/09 03:58:32;;;;;;;7.90;4.20;;;;;;;18.02;46.18;102521.72;5092561;28;20028;-74
2022/10/09 04:00:57;;;;;;;15.00;4.80;;;;;;;17.83;46.28;102518.44;5092751;28;20027;-74
2022/10/09 04:03:23;;;;;;;10.33;4.17;;;;;;;17.93;46.68;102516.59;5093538;28;20027;-75
2022/10/09 04:05:48;;;;;;;12.77;4.43;;;;;;;17.91;45.90;102523.63;5093759;28;20028;-75
2022/10/09 04:08:14;;;;;;;10.00;4.00;;;;;;;18.01;45.98;102520.00;5093992;28;20024;-75
2022/10/09 04:10:40;;;;;;;12.13;4.57;;;;;;;18.27;45.54;102521.34;5091950;28;20471;-75
2022/10/09 04:13:05;;;;;;;10.93;4.30;;;;;;;17.98;45.48;102525.31;5092693;28;20369;-75
2022/10/09 04:15:31;;;;;;;10.23;4.30;;;;;;;18.13;45.59;102525.13;5092356;28;20111;-75
2022/10/09 04:17:56;;;;;;;10.37;3.90;;;;;;;18.20;45.05;102522.34;5091538;28;20372;-75
2022/10/09 04:20:22;;;;;;;8.53;4.23;;;;;;;17.95;46.36;102517.44;5092362;28;20028;-75
2022/10/09 04:22:47;;;;;;;9.80;4.27;;;;;;;17.32;47.38;102519.06;5093702;28;20028;-75
2022/10/09 04:25:12;;;;;;;12.83;4.33;;;;;;;17.81;46.16;102517.59;5091556;28;20085;-75
2022/10/09 04:27:38;;;;;;;7.50;3.87;;;;;;;17.59;46.60;102503.78;5092410;28;20028;-75
2022/10/09 04:30:04;;;;;;;11.97;4.47;;;;;;;17.88;46.02;102515.75;5092027;28;20047;-75
2022/10/09 04:32:29;;;;;;;12.80;4.40;;;;;;;17.80;45.96;102516.72;5091400;28;20024;-75
2022/10/09 04:34:55;;;;;;;14.00;4.23;;;;;;;17.76;46.07;102509.72;5092063;28;20395;-75
2022/10/09 04:37:20;;;;;;;13.57;4.60;;;;;;;17.50;46.48;102503.91;5092085;28;20078;-75
2022/10/09 04:39:45;;;;;;;9.10;4.67;;;;;;;17.08;47.08;102507.88;5091040;28;20059;-75
2022/10/09 04:42:11;;;;;;;11.80;4.30;;;;;;;17.20;47.56;102503.34;5091839;28;20030;-75
2022/10/09 04:44:36;;;;;;;9.53;4.03;;;;;;;17.47;46.65;102491.59;5091965;28;20035;-75
2022/10/09 04:47:02;;;;;;;8.60;4.37;;;;;;;17.32;46.55;102483.84;5091013;28;20107;-75
2022/10/09 04:49:27;;;;;;;9.47;4.23;;;;;;;16.72;48.22;102496.78;5091878;28;20044;-76
2022/10/09 04:51:52;;;;;;;11.10;4.50;;;;;;;17.29;47.21;102500.63;5090821;28;20458;-75
2022/10/09 04:54:18;;;;;;;16.43;4.47;;;;;;;17.69;45.94;102489.53;5091771;28;20056;-75
2022/10/09 04:56:43;;;;;;;12.87;4.63;;;;;;;17.25;46.85;102496.25;5092761;28;20434;-75
2022/10/09 04:59:09;;;;;;;17.40;4.67;;;;;;;17.29;47.09;102492.69;5091004;28;20051;-75
2022/10/09 05:01:34;;;;;;;16.97;5.87;;;;;;;17.50;46.63;102495.97;5091574;28;20020;-75
2022/10/09 05:03:59;;;;;;;12.03;4.50;;;;;;;17.62;46.08;102495.81;5091549;28;20027;-75
2022/10/09 05:06:25;;;;;;;9.63;4.70;;;;;;;17.74;45.97;102489.50;5090930;28;20020;-75
2022/10/09 05:08:51;;;;;;;15.77;4.80;;;;;;;16.90;48.13;102494.91;5091548;28;20027;-75
2022/10/09 05:11:23;;;;;;;15.87;5.40;;;;;;;16.59;48.29;102495.13;5091168;28;20017;-75
2022/10/09 05:13:51;;;;;;;14.55;5.68;;;;;;;17.25;46.93;102490.97;5090843;28;20093;-75
2022/10/09 05:16:21;;;;;;;11.70;4.87;;;;;;;16.89;48.19;102494.00;5091363;28;20544;-75
2022/10/09 05:18:48;;;;;;;13.60;6.17;;;;;;;17.22;47.05;102491.03;5091420;28;20024;-75
2022/10/09 05:21:14;;;;;;;14.70;6.30;;;;;;;17.08;47.56;102496.47;5090434;28;20025;-75
2022/10/09 05:23:40;;;;;;;13.03;5.20;;;;;;;16.96;47.84;102500.09;5090952;28;20081;-75
2022/10/09 05:26:09;;;;;;;11.57;6.00;;;;;;;16.75;47.93;102499.38;5091049;28;20024;-75
2022/10/09 05:28:35;;;;;;;14.57;5.70;;;;;;;17.31;46.79;102480.34;5091927;28;20024;-75
2022/10/09 05:31:04;;;;;;;13.77;6.13;;;;;;;16.80;48.35;102488.75;5091192;28;20027;-75
2022/10/09 05:33:30;;;;;;;13.13;7.60;;;;;;;17.24;46.89;102489.22;5090823;28;20024;-75
2022/10/09 05:35:58;;;;;;;13.53;7.77;;;;;;;16.86;47.18;102487.84;5090274;28;20077;-75
2022/10/09 05:38:24;;;;;;;17.33;8.57;;;;;;;17.43;46.69;102481.94;5091037;28;20111;-75
2022/10/09 05:40:54;;;;;;;15.00;6.80;;;;;;;17.44;46.48;102487.22;5090865;28;20141;-75
2022/10/09 05:43:23;;;;;;;20.93;8.87;;;;;;;17.31;46.53;102488.28;5090622;28;20020;-75
2022/10/09 05:45:48;;;;;;;13.43;7.60;;;;;;;16.92;48.06;102486.03;5090943;28;20023;-75
2022/10/09 05:48:13;;;;;;;15.00;6.77;;;;;;;17.35;46.42;102483.81;5090405;28;20384;-75
2022/10/09 05:50:39;;;;;;;24.77;14.87;;;;;;;17.43;46.15;102484.59;5091761;28;20044;-75
2022/10/09 05:53:04;;;;;;;23.93;12.33;;;;;;;17.43;45.99;102484.59;5090915;28;20016;-75
2022/10/09 05:55:29;;;;;;;17.80;10.67;;;;;;;17.38;46.03;102484.66;5089964;28;20475;-75
2022/10/09 05:57:55;;;;;;;18.23;7.70;;;;;;;17.58;45.73;102491.44;5090411;28;20024;-75
2022/10/09 06:00:20;;;;;;;14.60;7.20;;;;;;;17.51;45.45;102492.44;5091558;28;20024;-75
2022/10/09 06:02:45;;;;;;;17.47;7.00;;;;;;;17.07;46.10;102490.28;5089793;28;20457;-75
2022/10/09 06:05:11;;;;;;;15.57;6.70;;;;;;;17.20;46.25;102492.78;5091993;28;20434;-75
2022/10/09 06:07:36;;;;;;;17.73;7.87;;;;;;;17.30;46.04;102490.03;5090663;28;20028;-75
2022/10/09 06:10:03;;;;;;;14.07;6.67;;;;;;;17.37;45.97;102495.25;5089852;28;20380;-75
2022/10/09 06:12:28;;;;;;;15.73;7.17;;;;;;;17.16;46.38;102488.44;5090500;28;20020;-75
2022/10/09 06:14:53;;;;;;;14.40;6.07;;;;;;;17.27;46.48;102491.84;5091937;28;20551;-75
2022/10/09 06:17:19;;;;;;;15.23;7.20;;;;;;;17.13;46.42;102492.88;5089594;28;20032;-75
2022/10/09 06:19:44;;;;;;;16.00;7.07;;;;;;;17.17;46.83;102488.41;5090334;28;20025;-75
2022/10/09 06:22:09;;;;;;;16.70;8.63;;;;;;;16.97;47.24;102488.66;5090539;28;20028;-75
2022/10/09 06:24:35;;;;;;;31.23;9.40;;;;;;;16.92;47.03;102499.25;5091142;28;20037;-75
2022/10/09 06:27:01;;;;;;;14.80;7.07;;;;;;;17.23;46.61;102498.06;5090469;28;20432;-75
2022/10/09 06:29:26;;;;;;;14.07;6.80;;;;;;;17.25;46.66;102494.47;5090536;28;20063;-75
2022/10/09 06:31:52;;;;;;;15.53;7.00;;;;;;;17.14;46.68;102493.75;5089513;28;20486;-75
2022/10/09 06:34:17;;;;;;;16.27;6.87;;;;;;;16.94;46.84;102491.31;5090693;28;20031;-75
2022/10/09 06:36:42;;;;;;;19.90;7.50;;;;;;;17.28;46.35;102502.41;5090366;28;20032;-74
2022/10/09 06:39:09;;;;;;;11.43;7.00;;;;;;;17.55;45.59;102496.78;5089653;28;20103;-75
2022/10/09 06:41:35;;;;;;;14.17;7.07;;;;;;;17.03;47.19;102493.84;5090488;28;20108;-75
2022/10/09 06:44:03;;;;;;;13.10;6.97;;;;;;;16.54;47.87;102496.94;5090322;28;20442;-75
2022/10/09 06:46:32;;;;;;;22.17;7.53;;;;;;;16.86;47.53;102503.72;5089275;28;20020;-75
2022/10/09 06:48:58;;;;;;;15.17;7.77;;;;;;;17.21;46.96;102499.84;5091521;28;20036;-75
2022/10/09 06:51:26;;;;;;;10.97;7.07;;;;;;;17.45;45.94;102494.25;5089352;28;20078;-75
2022/10/09 06:53:54;;;;;;;12.23;7.17;;;;;;;17.13;47.27;102500.81;5090045;28;20066;-75
2022/10/09 06:56:22;;;;;;;14.03;6.23;;;;;;;17.44;46.70;102499.56;5090320;28;20065;-75
2022/10/09 06:58:49;;;;;;;13.37;7.83;;;;;;;17.18;46.72;102500.72;5090636;28;20531;-75
2022/10/09 07:01:23;;;;;;;16.70;7.87;;;;;;;17.27;46.71;102494.50;5090027;28;20135;-75
2022/10/09 07:03:53;;;;;;;15.33;8.37;;;;;;;17.42;46.63;102496.94;5090164;28;20020;-75
2022/10/09 07:06:24;;;;;;;18.30;8.50;;;;;;;17.57;46.02;102498.53;5090573;28;20048;-75
2022/10/09 07:08:53;;;;;;;14.13;8.17;;;;;;;17.35;46.48;102503.19;5090202;28;20020;-75
2022/10/09 07:11:22;;;;;;;21.03;9.20;;;;;;;17.18;47.04;102499.88;5091803;28;20046;-75
2022/10/09 07:13:50;;;;;;;22.20;10.50;;;;;;;17.49;46.45;102483.63;5092885;28;20027;-75
2022/10/09 07:16:24;;;;;;;20.73;10.37;;;;;;;17.72;45.94;102496.56;5093504;28;20012;-75
2022/10/09 07:18:49;;;;;;;19.47;10.97;;;;;;;17.78;46.04;102497.34;5093532;28;20028;-75
2022/10/09 07:21:15;;;;;;;17.37;10.73;;;;;;;17.55;46.63;102495.00;5092967;28;20480;-75
2022/10/09 07:23:40;;;;;;;16.73;10.10;;;;;;;17.95;45.19;102499.78;5094984;28;20024;-75
2022/10/09 07:26:15;;;;;;;14.73;9.63;;;;;;;17.43;47.08;102501.34;5093450;28;20020;-75
2022/10/09 07:28:42;;;;;;;13.67;9.30;;;;;;;17.66;47.09;102502.81;5092398;28;20028;-75
2022/10/09 07:31:09;;;;;;;20.57;9.77;;;;;;;17.96;46.75;102496.25;5093387;28;20375;-75
2022/10/09 07:33:34;;;;;;;16.03;10.00;;;;;;;18.18;45.77;102501.22;5092631;28;20120;-75
2022/10/09 07:36:02;;;;;;;21.23;11.03;;;;;;;18.23;46.34;102503.78;5093223;28;20054;-75
2022/10/09 07:38:28;;;;;;;22.03;11.60;;;;;;;18.07;46.78;102498.72;5093285;28;20031;-75
2022/10/09 07:40:57;;;;;;;19.27;11.57;;;;;;;17.51;48.86;102495.06;5092294;28;20145;-75
2022/10/09 07:43:23;;;;;;;17.47;11.77;;;;;;;18.12;47.29;102490.72;5093223;28;20510;-75
2022/10/09 07:45:48;;;;;;;20.43;10.77;;;;;;;17.95;48.04;102494.47;5093187;28;20054;-75
2022/10/09 07:48:14;;;;;;;25.13;10.60;;;;;;;18.10;47.10;102490.75;5092537;28;20016;-75
2022/10/09 07:50:39;;;;;;;22.63;10.80;;;;;;;18.00;47.70;102486.50;5092799;28;20100;-75
2022/10/09 07:53:05;;;;;;;21.67;10.00;;;;;;;17.87;47.92;102484.88;5093034;28;20024;-74
2022/10/09 07:55:30;;;;;;;16.33;10.03;;;;;;;18.38;47.35;102487.66;5093725;28;20024;-75
2022/10/09 07:57:55;;;;;;;21.93;9.57;;;;;;;18.40;46.67;102490.28;5092922;28;20110;-75
2022/10/09 08:00:21;;;;;;;21.50;11.00;;;;;;;18.93;45.75;102477.00;5092857;28;20024;-75
2022/10/09 08:02:46;;;;;;;29.60;12.63;;;;;;;18.13;47.36;102495.09;5092106;28;20016;-75
2022/10/09 08:05:11;;;;;;;16.40;10.20;;;;;;;18.51;46.54;102487.47;5094015;28;20541;-75
2022/10/09 08:07:37;;;;;;;15.13;8.73;;;;;;;18.43;46.85;102496.38;5092553;28;20493;-75
2022/10/09 08:10:03;;;;;;;17.10;9.97;;;;;;;19.24;46.12;102479.94;5091965;28;20391;-75
2022/10/09 08:12:28;;;;;;;14.23;8.50;;;;;;;19.33;45.17;102481.53;5092598;28;20020;-75
2022/10/09 08:14:54;;;;;;;14.23;7.77;;;;;;;19.03;46.03;102480.34;5092588;28;20441;-75
2022/10/09 08:17:19;;;;;;;14.53;8.13;;;;;;;19.36;45.17;102477.91;5091618;28;20191;-75
2022/10/09 08:19:44;;;;;;;28.03;15.10;;;;;;;19.34;45.42;102491.22;5093764;28;20024;-75
2022/10/09 08:22:10;;;;;;;20.73;9.90;;;;;;;19.42;45.23;102476.03;5093358;28;20038;-74
2022/10/09 08:24:37;;;;;;;16.33;9.97;;;;;;;19.24;46.31;102479.06;5091629;28;20034;-74
2022/10/09 08:27:02;;;;;;;19.73;8.57;;;;;;;18.30;48.93;102471.91;5093399;28;20035;-74
2022/10/09 08:29:28;;;;;;;17.63;9.03;;;;;;;19.49;46.33;102480.31;5092358;28;20419;-75
2022/10/09 08:31:53;;;;;;;22.20;9.33;;;;;;;20.11;44.42;102473.63;5093060;28;20028;-75
2022/10/09 08:34:19;;;;;;;12.10;6.73;;;;;;;19.60;45.27;102472.09;5092343;28;20020;-75
2022/10/09 08:36:44;;;;;;;14.20;7.10;;;;;;;20.26;43.99;102471.50;5093304;28;20020;-74
2022/10/09 08:39:10;;;;;;;17.93;6.17;;;;;;;19.35;45.60;102471.75;5091327;28;20023;-75
2022/10/09 08:41:51;;;;;;;12.53;6.43;;;;;;;20.06;44.92;102469.31;5093559;28;20032;-75
2022/10/09 08:44:27;;;;;;;11.47;5.80;;;;;;;19.71;45.90;102466.56;5091556;28;20020;-75
2022/10/09 08:46:57;;;;;;;21.17;6.20;;;;;;;19.82;45.92;102467.25;5091743;28;20483;-75
2022/10/09 08:49:46;;;;;;;14.40;6.07;;;;;;;19.10;47.17;102464.31;5091795;28;20028;-75
2022/10/09 08:52:14;;;;;;;14.40;5.60;;;;;;;20.51;44.78;102462.00;5090959;28;20126;-75
2022/10/09 08:54:40;;;;;;;13.20;5.87;;;;;;;20.03;46.09;102459.69;5091843;28;20526;-75
2022/10/09 08:57:12;;;;;;;15.67;5.90;;;;;;;20.27;45.30;102463.50;5091844;28;20047;-75
2022/10/09 08:59:37;;;;;;;13.52;6.40;;;;;;;20.29;45.17;102456.38;5090866;28;20479;-74
2022/10/09 09:02:24;;;;;;;10.73;5.50;;;;;;;19.53;45.33;102451.06;5091410;28;20119;-75
2022/10/09 09:04:58;;;;;;;15.97;5.30;;;;;;;19.13;46.56;102458.06;5091724;28;20020;-75
2022/10/09 09:07:55;;;;;;;11.50;4.60;;;;;;;20.25;43.72;102444.09;5091536;28;20126;-75
2022/10/09 09:10:48;;;;;;;17.27;5.87;;;;;;;21.24;43.37;102440.53;5091465;28;20082;-75
2022/10/09 09:13:18;;;;;;;;;;;;;;;21.35;42.59;102441.13;5091034;28;20035;-75
2022/10/09 09:15:51;;;;;;;15.03;5.63;;;;;;;20.66;44.13;102422.66;5091522;28;20018;-75
2022/10/09 09:18:16;;;;;;;;;;;;;;;21.24;42.75;102428.13;5091702;28;20027;-75
2022/10/09 09:20:50;;;;;;;14.18;4.88;;;;;;;21.02;43.56;102420.78;5090332;28;19949;-75
2022/10/09 09:23:16;;;;;;;13.77;4.70;;;;;;;20.54;44.00;102426.53;5091257;28;20035;-75
2022/10/09 09:25:44;;;;;;;12.57;4.73;;;;;;;20.59;43.63;102423.72;5091306;28;20503;-75
2022/10/09 09:28:19;;;;;;;17.30;4.83;;;;;;;20.53;43.45;102426.56;5090128;28;20058;-74
2022/10/09 09:31:05;;;;;;;11.10;4.50;;;;;;;20.98;42.16;102426.25;5091277;28;20024;-75
2022/10/09 09:33:42;;;;;;;11.73;4.60;;;;;;;21.08;41.70;102425.03;5089802;28;20121;-75
2022/10/09 09:36:11;;;;;;;11.90;4.55;;;;;;;21.25;41.78;102416.56;5091131;28;20403;-75
2022/10/09 09:38:36;;;;;;;15.35;5.05;;;;;;;22.07;40.65;102415.81;5090745;28;20376;-74
2022/10/09 09:41:03;;;;;;;17.80;5.18;;;;;;;22.22;40.11;102411.78;5090317;28;20023;-75
2022/10/09 09:43:29;;;;;;;16.02;4.40;;;;;;;20.92;42.24;102415.78;5092185;28;20027;-75
2022/10/09 09:45:57;;;;;;;15.43;4.60;;;;;;;22.04;40.94;102411.47;5090890;28;20027;-75
2022/10/09 09:48:38;;;;;;;11.32;4.75;;;;;;;22.62;39.93;102407.75;5090072;28;20085;-75
2022/10/09 09:51:11;;;;;;;12.93;4.50;;;;;;;22.35;39.84;102394.47;5091794;28;20134;-75
2022/10/09 09:53:39;;;;;;;12.13;4.45;;;;;;;22.25;40.19;102403.69;5091007;28;20062;-75
2022/10/09 09:56:06;;;;;;;9.50;3.65;;;;;;;21.45;41.78;102394.69;5090264;28;20084;-74
2022/10/09 09:58:38;;;;;;;8.35;3.95;;;;;;;21.83;40.46;102394.41;5090451;28;20073;-74
2022/10/09 10:01:05;;;;;;;11.97;3.60;;;;;;;21.57;40.38;102388.16;5090657;28;20023;-75
2022/10/09 10:03:34;;;;;;;9.57;4.05;;;;;;;21.71;40.34;102389.47;5089956;28;20274;-75
2022/10/09 10:05:59;;;;;;;10.60;3.80;;;;;;;21.83;40.66;102381.09;5091539;28;20028;-75
2022/10/09 10:08:31;;;;;;;6.80;3.17;;;;;;;22.50;39.03;102371.75;5089908;28;20081;-75
2022/10/09 10:11:02;;;;;;;9.85;3.58;;;;;;;22.31;39.19;102371.50;5090635;28;20020;-75
2022/10/09 10:13:33;;;;;;;12.73;4.68;;;;;;;22.68;38.42;102364.88;5090418;28;20019;-75
2022/10/09 10:15:59;;;;;;;9.20;3.90;;;;;;;23.67;37.43;102366.41;5089924;28;20023;-75
2022/10/09 10:18:27;;;;;;;7.35;3.33;;;;;;;23.23;38.07;102361.06;5090581;28;20077;-74
2022/10/09 10:21:02;;;;;;;10.07;3.90;;;;;;;23.48;36.85;102356.50;5090343;28;20096;-74
2022/10/09 10:23:32;;;;;;;10.32;5.30;;;;;;;22.89;37.83;102355.22;5089858;28;20027;-74
2022/10/09 10:26:00;;;;;;;11.30;3.20;;;;;;;21.93;38.39;102369.22;5090287;28;20028;-75
2022/10/09 10:28:36;;;;;;;10.07;3.22;;;;;;;22.74;36.73;102348.66;5090490;28;20020;-75
2022/10/09 10:31:06;;;;;;;13.13;4.30;;;;;;;22.77;37.59;102348.53;5091082;28;20126;-74
2022/10/09 10:33:35;;;;;;;12.13;3.58;;;;;;;23.03;37.45;102354.69;5090690;28;20379;-74
2022/10/09 10:36:00;;;;;;;10.65;3.92;;;;;;;24.16;35.81;102351.00;5091526;28;20028;-74
2022/10/09 10:38:29;;;;;;;7.15;2.97;;;;;;;23.79;35.91;102343.66;5089708;28;20529;-74
2022/10/09 10:41:14;;;;;;;7.95;3.08;;;;;;;23.70;35.68;102358.28;5090143;28;20123;-74
2022/10/09 10:43:44;;;;;;;10.55;3.58;;;;;;;23.17;36.30;102340.84;5089681;28;20059;-74
2022/10/09 10:46:14;;;;;;;13.27;5.45;;;;;;;23.30;34.77;102338.53;5093258;28;20024;-74
2022/10/09 10:48:42;;;;;;;7.57;4.32;;;;;;;23.76;34.67;102334.00;5094203;28;20027;-74
2022/10/09 10:51:13;;;;;;;8.93;2.92;;;;;;;23.03;35.41;102331.53;5093026;28;20072;-75
2022/10/09 10:54:07;;;;;;;7.22;2.70;;;;;;;22.51;35.47;102326.38;5094061;28;20064;-74
2022/10/09 10:56:47;;;;;;;6.82;2.30;;;;;;;22.85;35.07;102322.47;5093770;28;20024;-74
2022/10/09 10:59:32;;;;;;;20.42;7.95;;;;;;;23.60;35.10;102306.19;5093066;28;20022;-75
2022/10/09 11:02:16;;;;;;;9.05;2.25;;;;;;;22.96;34.23;102302.53;5093961;28;20030;-75
2022/10/09 11:05:12;;;;;;;16.63;5.30;;;;;;;23.58;34.99;102300.94;5094472;28;20562;-74
2022/10/09 11:07:56;;;;;;;10.50;4.90;;;;;;;23.67;33.85;102291.66;5093690;28;20563;-75
2022/10/09 11:10:50;;;;;;;23.48;6.63;;;;;;;23.57;33.42;102293.00;5093651;28;20464;-74
2022/10/09 11:13:24;;;;;;;10.93;3.67;;;;;;;25.37;31.84;102281.31;5092905;28;20048;-74
2022/10/09 11:16:14;;;;;;;11.48;4.03;;;;;;;24.43;33.02;102278.59;5095038;28;20024;-74
2022/10/09 11:19:10;;;;;;;18.65;6.18;;;;;;;24.41;33.33;102277.75;5092852;28;20031;-74
2022/10/09 11:22:11;;;;;;;10.18;4.05;;;;;;;24.83;32.11;102279.41;5093313;28;20056;-74
2022/10/09 11:24:42;;;;;;;10.98;4.35;;;;;;;23.98;33.93;102269.03;5090407;28;20067;-74
2022/10/09 11:27:28;;;;;;;9.60;2.88;;;;;;;25.14;32.38;102261.91;5092840;28;20040;-74
2022/10/09 11:30:08;;;;;;;15.88;5.63;;;;;;;25.84;32.00;102258.41;5093238;28;20020;-74